sensor_id;sensor_type;location;lat;lon;timestamp;P1;durP1;ratioP1;P2;durP2;ratioP2
60078;SDS011;45951;45.824;8.824;2022-12-29T00:03:24;29.27;;;17.48;;
60078;SDS011;45951;45.824;8.824;2022-12-29T00:09:25;26.30;;;16.40;;
60078;SDS011;45951;45.824;8.824;2022-12-29T00:15:25;29.17;;;17.08;;
60078;SDS011;45951;45.824;8.824;2022-12-29T00:21:38;24.35;;;15.25;;
60078;SDS011;45951;45.824;8.824;2022-12-29T00:27:57;29.80;;;16.98;;
60078;SDS011;45951;45.824;8.824;2022-12-29T00:34:16;27.02;;;15.13;;
60078;SDS011;45951;45.824;8.824;2022-12-29T00:40:35;24.33;;;15.35;;
60078;SDS011;45951;45.824;8.824;2022-12-29T00:46:54;25.30;;;15.15;;
60078;SDS011;45951;45.824;8.824;2022-12-29T00:52:54;25.80;;;15.27;;
60078;SDS011;45951;45.824;8.824;2022-12-29T00:58:55;24.50;;;14.43;;
60078;SDS011;45951;45.824;8.824;2022-12-29T01:04:55;26.23;;;15.13;;
60078;SDS011;45951;45.824;8.824;2022-12-29T01:11:13;24.02;;;14.07;;
60078;SDS011;45951;45.824;8.824;2022-12-29T01:17:14;22.33;;;14.07;;
60078;SDS011;45951;45.824;8.824;2022-12-29T01:23:14;20.80;;;13.45;;
60078;SDS011;45951;45.824;8.824;2022-12-29T01:29:14;23.08;;;13.82;;
60078;SDS011;45951;45.824;8.824;2022-12-29T01:35:15;22.37;;;13.13;;
60078;SDS011;45951;45.824;8.824;2022-12-29T01:41:16;22.73;;;13.77;;
60078;SDS011;45951;45.824;8.824;2022-12-29T01:47:19;22.02;;;13.77;;
60078;SDS011;45951;45.824;8.824;2022-12-29T01:53:27;23.70;;;14.60;;
60078;SDS011;45951;45.824;8.824;2022-12-29T01:59:34;23.65;;;13.82;;
60078;SDS011;45951;45.824;8.824;2022-12-29T02:05:39;22.80;;;13.88;;
60078;SDS011;45951;45.824;8.824;2022-12-29T02:11:49;26.80;;;17.13;;
60078;SDS011;45951;45.824;8.824;2022-12-29T02:37:24;21.00;;;12.95;;
60078;SDS011;45951;45.824;8.824;2022-12-29T02:56:23;20.42;;;12.73;;
60078;SDS011;45951;45.824;8.824;2022-12-29T03:02:28;20.42;;;12.70;;
60078;SDS011;45951;45.824;8.824;2022-12-29T03:08:50;20.95;;;13.25;;
60078;SDS011;45951;45.824;8.824;2022-12-29T03:15:03;22.10;;;14.30;;
60078;SDS011;45951;45.824;8.824;2022-12-29T03:21:41;23.73;;;15.07;;
60078;SDS011;45951;45.824;8.824;2022-12-29T03:28:06;20.05;;;13.40;;
60078;SDS011;45951;45.824;8.824;2022-12-29T03:34:09;25.90;;;14.65;;
60078;SDS011;45951;45.824;8.824;2022-12-29T03:40:10;23.55;;;14.05;;
60078;SDS011;45951;45.824;8.824;2022-12-29T03:46:11;20.08;;;12.98;;
60078;SDS011;45951;45.824;8.824;2022-12-29T03:52:11;21.45;;;12.48;;
60078;SDS011;45951;45.824;8.824;2022-12-29T03:58:12;18.20;;;11.20;;
60078;SDS011;45951;45.824;8.824;2022-12-29T04:04:12;17.27;;;10.43;;
60078;SDS011;45951;45.824;8.824;2022-12-29T04:10:12;18.97;;;9.93;;
60078;SDS011;45951;45.824;8.824;2022-12-29T04:16:13;15.65;;;8.45;;
60078;SDS011;45951;45.824;8.824;2022-12-29T04:22:13;12.02;;;7.18;;
60078;SDS011;45951;45.824;8.824;2022-12-29T04:28:14;10.30;;;6.20;;
60078;SDS011;45951;45.824;8.824;2022-12-29T04:34:15;10.02;;;5.90;;
60078;SDS011;45951;45.824;8.824;2022-12-29T04:40:15;10.38;;;5.72;;
60078;SDS011;45951;45.824;8.824;2022-12-29T04:46:15;9.38;;;5.53;;
60078;SDS011;45951;45.824;8.824;2022-12-29T04:52:16;10.03;;;6.13;;
60078;SDS011;45951;45.824;8.824;2022-12-29T04:58:16;9.85;;;5.97;;
60078;SDS011;45951;45.824;8.824;2022-12-29T05:04:17;11.90;;;6.63;;
60078;SDS011;45951;45.824;8.824;2022-12-29T05:10:17;10.63;;;6.00;;
60078;SDS011;45951;45.824;8.824;2022-12-29T05:16:18;11.30;;;6.33;;
60078;SDS011;45951;45.824;8.824;2022-12-29T05:22:18;10.50;;;6.65;;
60078;SDS011;45951;45.824;8.824;2022-12-29T05:28:18;11.68;;;7.13;;
60078;SDS011;45951;45.824;8.824;2022-12-29T05:34:18;11.25;;;7.15;;
60078;SDS011;45951;45.824;8.824;2022-12-29T05:40:19;12.40;;;7.68;;
60078;SDS011;45951;45.824;8.824;2022-12-29T05:46:19;12.20;;;7.83;;
60078;SDS011;45951;45.824;8.824;2022-12-29T05:52:19;15.15;;;8.48;;
60078;SDS011;45951;45.824;8.824;2022-12-29T05:58:20;12.50;;;8.23;;
60078;SDS011;45951;45.824;8.824;2022-12-29T06:04:20;12.95;;;8.48;;
60078;SDS011;45951;45.824;8.824;2022-12-29T06:10:20;13.43;;;8.32;;
60078;SDS011;45951;45.824;8.824;2022-12-29T06:16:21;12.50;;;7.55;;
60078;SDS011;45951;45.824;8.824;2022-12-29T06:22:21;13.48;;;8.75;;
60078;SDS011;45951;45.824;8.824;2022-12-29T06:28:21;17.13;;;9.40;;
60078;SDS011;45951;45.824;8.824;2022-12-29T06:34:22;14.40;;;9.13;;
60078;SDS011;45951;45.824;8.824;2022-12-29T06:40:22;14.32;;;9.30;;
60078;SDS011;45951;45.824;8.824;2022-12-29T06:46:25;15.82;;;9.60;;
60078;SDS011;45951;45.824;8.824;2022-12-29T06:52:25;16.75;;;9.38;;
60078;SDS011;45951;45.824;8.824;2022-12-29T06:58:25;19.10;;;9.10;;
60078;SDS011;45951;45.824;8.824;2022-12-29T07:04:26;13.90;;;8.98;;
60078;SDS011;45951;45.824;8.824;2022-12-29T07:10:26;16.10;;;9.70;;
60078;SDS011;45951;45.824;8.824;2022-12-29T07:16:26;16.83;;;10.43;;
60078;SDS011;45951;45.824;8.824;2022-12-29T07:22:29;14.65;;;9.75;;
60078;SDS011;45951;45.824;8.824;2022-12-29T07:28:29;18.52;;;10.75;;
60078;SDS011;45951;45.824;8.824;2022-12-29T07:34:30;15.18;;;10.45;;
60078;SDS011;45951;45.824;8.824;2022-12-29T07:40:30;14.60;;;10.32;;
60078;SDS011;45951;45.824;8.824;2022-12-29T07:46:30;15.20;;;10.20;;
60078;SDS011;45951;45.824;8.824;2022-12-29T07:52:31;13.82;;;9.05;;
60078;SDS011;45951;45.824;8.824;2022-12-29T07:58:31;13.18;;;8.65;;
60078;SDS011;45951;45.824;8.824;2022-12-29T08:04:31;15.30;;;9.10;;
60078;SDS011;45951;45.824;8.824;2022-12-29T08:10:32;14.93;;;8.97;;
60078;SDS011;45951;45.824;8.824;2022-12-29T08:16:32;10.88;;;7.18;;
60078;SDS011;45951;45.824;8.824;2022-12-29T08:22:33;10.13;;;6.50;;
60078;SDS011;45951;45.824;8.824;2022-12-29T08:28:33;11.15;;;6.90;;
60078;SDS011;45951;45.824;8.824;2022-12-29T08:34:33;10.70;;;6.97;;
60078;SDS011;45951;45.824;8.824;2022-12-29T08:40:34;11.75;;;6.95;;
60078;SDS011;45951;45.824;8.824;2022-12-29T08:46:34;12.48;;;7.85;;
60078;SDS011;45951;45.824;8.824;2022-12-29T08:52:34;12.63;;;8.40;;
60078;SDS011;45951;45.824;8.824;2022-12-29T08:58:35;14.65;;;8.40;;
60078;SDS011;45951;45.824;8.824;2022-12-29T09:04:35;14.68;;;9.70;;
60078;SDS011;45951;45.824;8.824;2022-12-29T09:10:35;14.48;;;9.95;;
60078;SDS011;45951;45.824;8.824;2022-12-29T09:16:36;17.02;;;11.05;;
60078;SDS011;45951;45.824;8.824;2022-12-29T09:22:37;14.65;;;10.77;;
60078;SDS011;45951;45.824;8.824;2022-12-29T09:28:37;16.98;;;11.02;;
60078;SDS011;45951;45.824;8.824;2022-12-29T09:34:37;14.95;;;9.52;;
60078;SDS011;45951;45.824;8.824;2022-12-29T09:40:38;14.70;;;9.55;;
60078;SDS011;45951;45.824;8.824;2022-12-29T09:46:46;14.45;;;9.02;;
60078;SDS011;45951;45.824;8.824;2022-12-29T09:59:17;13.48;;;9.20;;
60078;SDS011;45951;45.824;8.824;2022-12-29T10:24:22;11.93;;;7.70;;
60078;SDS011;45951;45.824;8.824;2022-12-29T10:30:24;12.65;;;8.23;;
60078;SDS011;45951;45.824;8.824;2022-12-29T10:36:35;9.52;;;6.75;;
60078;SDS011;45951;45.824;8.824;2022-12-29T10:42:40;11.25;;;6.95;;
60078;SDS011;45951;45.824;8.824;2022-12-29T10:48:43;10.25;;;6.13;;
60078;SDS011;45951;45.824;8.824;2022-12-29T10:54:53;10.82;;;5.95;;
60078;SDS011;45951;45.824;8.824;2022-12-29T11:00:55;30.95;;;21.45;;
60078;SDS011;45951;45.824;8.824;2022-12-29T11:06:56;28.93;;;20.77;;
60078;SDS011;45951;45.824;8.824;2022-12-29T11:12:58;28.50;;;21.42;;
60078;SDS011;45951;45.824;8.824;2022-12-29T11:19:22;27.67;;;19.85;;
60078;SDS011;45951;45.824;8.824;2022-12-29T11:25:24;24.98;;;19.27;;
60078;SDS011;45951;45.824;8.824;2022-12-29T11:31:24;24.05;;;19.30;;
60078;SDS011;45951;45.824;8.824;2022-12-29T11:37:27;22.38;;;17.33;;
60078;SDS011;45951;45.824;8.824;2022-12-29T11:43:31;24.42;;;18.00;;
60078;SDS011;45951;45.824;8.824;2022-12-29T11:49:33;27.48;;;18.17;;
60078;SDS011;45951;45.824;8.824;2022-12-29T11:55:33;26.67;;;19.30;;
60078;SDS011;45951;45.824;8.824;2022-12-29T12:01:37;25.08;;;18.08;;
60078;SDS011;45951;45.824;8.824;2022-12-29T12:07:43;23.70;;;17.25;;
60078;SDS011;45951;45.824;8.824;2022-12-29T12:13:58;21.45;;;15.20;;
60078;SDS011;45951;45.824;8.824;2022-12-29T12:20:26;18.95;;;14.68;;
60078;SDS011;45951;45.824;8.824;2022-12-29T12:26:34;21.10;;;15.38;;
60078;SDS011;45951;45.824;8.824;2022-12-29T12:38:47;19.23;;;12.60;;
60078;SDS011;45951;45.824;8.824;2022-12-29T12:45:07;14.20;;;9.68;;
60078;SDS011;45951;45.824;8.824;2022-12-29T12:57:50;14.15;;;9.85;;
60078;SDS011;45951;45.824;8.824;2022-12-29T13:10:19;15.55;;;10.07;;
60078;SDS011;45951;45.824;8.824;2022-12-29T13:23:16;17.77;;;11.85;;
60078;SDS011;45951;45.824;8.824;2022-12-29T13:29:32;16.27;;;11.55;;
60078;SDS011;45951;45.824;8.824;2022-12-29T13:41:56;17.58;;;11.68;;
60078;SDS011;45951;45.824;8.824;2022-12-29T13:54:11;17.85;;;11.32;;
60078;SDS011;45951;45.824;8.824;2022-12-29T14:00:20;19.70;;;10.32;;
60078;SDS011;45951;45.824;8.824;2022-12-29T14:06:32;16.92;;;10.57;;
60078;SDS011;45951;45.824;8.824;2022-12-29T14:12:35;15.93;;;9.55;;
60078;SDS011;45951;45.824;8.824;2022-12-29T14:18:42;19.05;;;12.45;;
60078;SDS011;45951;45.824;8.824;2022-12-29T14:24:44;21.43;;;12.40;;
60078;SDS011;45951;45.824;8.824;2022-12-29T14:30:46;17.65;;;12.50;;
60078;SDS011;45951;45.824;8.824;2022-12-29T14:36:54;19.35;;;13.00;;
60078;SDS011;45951;45.824;8.824;2022-12-29T14:42:59;21.42;;;13.50;;
60078;SDS011;45951;45.824;8.824;2022-12-29T14:48:59;22.95;;;13.63;;
